Time;durP1;ratioP1;P1;durP2;ratioP2;P2;SDS_P1;SDS_P2;PMS_P1;PMS_P2;Temp;Humidity;BMP_temperature;BMP_pressure;BME280_temperature;BME280_humidity;BME280_pressure;Samples;Min_cycle;Max_cycle;Signal;HPM_P1;HPM_P2
2024/01/03 00:01:29;;;;;;;3.00;2.85;;;9.80;99.90;;;;;;5100549;28;20020;-91
2024/01/03 00:03:55;;;;;;;2.65;2.50;;;9.70;99.90;;;;;;5100529;28;20028;-91
2024/01/03 00:06:21;;;;;;;2.42;2.33;;;9.60;99.90;;;;;;5099515;28;20103;-91
2024/01/03 00:08:47;;;;;;;2.22;2.10;;;9.60;99.90;;;;;;5099478;28;20028;-90
2024/01/03 00:11:20;;;;;;;3.00;2.65;;;9.50;99.90;;;;;;5097657;28;20027;-91
2024/01/03 00:14:05;;;;;;;1.27;1.17;;;9.50;99.90;;;;;;5097610;28;20031;-90
2024/01/03 00:16:33;;;;;;;1.15;0.93;;;9.40;99.90;;;;;;5098728;28;20490;-91
2024/01/03 00:19:00;;;;;;;2.13;2.03;;;9.30;99.90;;;;;;5100373;28;20100;-91
2024/01/03 00:21:27;;;;;;;1.23;1.13;;;9.30;99.90;;;;;;5101216;28;20023;-93
2024/01/03 00:23:58;;;;;;;2.72;2.53;;;9.40;99.90;;;;;;5097972;28;20028;-91
2024/01/03 00:26:25;;;;;;;2.45;2.25;;;9.30;99.90;;;;;;5096638;28;20023;-90
2024/01/03 00:28:52;;;;;;;2.97;2.55;;;9.40;99.90;;;;;;5096942;28;20028;-91
2024/01/03 00:31:50;;;;;;;3.33;2.35;;;9.40;99.90;;;;;;5097008;28;20024;-91
2024/01/03 00:34:22;;;;;;;3.05;2.85;;;9.40;99.90;;;;;;5094680;28;20040;-91
2024/01/03 00:36:51;;;;;;;1.85;1.15;;;9.60;99.90;;;;;;5099859;28;20016;-92
2024/01/03 00:39:48;;;;;;;1.88;1.15;;;9.60;99.90;;;;;;5098471;28;20046;-92
2024/01/03 00:42:14;;;;;;;3.90;2.75;;;9.80;99.90;;;;;;5096414;28;20043;-91
2024/01/03 00:44:40;;;;;;;4.05;2.00;;;9.90;99.90;;;;;;5098117;28;20056;-92
2024/01/03 00:47:06;;;;;;;3.28;2.97;;;10.00;99.90;;;;;;5102279;28;20042;-91
2024/01/03 00:49:36;;;;;;;1.90;1.70;;;10.10;99.50;;;;;;5097128;28;20031;-91
2024/01/03 00:52:02;;;;;;;2.63;2.28;;;10.30;96.90;;;;;;5098103;28;20035;-92
2024/01/03 00:54:30;;;;;;;3.42;3.17;;;10.30;97.30;;;;;;5098805;28;20612;-91
2024/01/03 00:56:59;;;;;;;1.80;1.60;;;10.30;98.10;;;;;;5093210;28;20367;-91
2024/01/03 00:59:26;;;;;;;7.03;2.60;;;10.20;97.50;;;;;;5098947;28;20066;-91
2024/01/03 01:01:52;;;;;;;4.22;1.25;;;10.30;96.80;;;;;;5099895;28;20028;-91
2024/01/03 01:04:18;;;;;;;2.08;1.77;;;10.40;94.20;;;;;;5099840;28;20023;-91
2024/01/03 01:06:45;;;;;;;5.32;1.08;;;10.40;95.00;;;;;;5115677;28;20079;-92
2024/01/03 01:09:11;;;;;;;4.07;2.90;;;10.50;93.50;;;;;;5114731;28;20009;-92
2024/01/03 01:11:37;;;;;;;2.45;2.25;;;10.50;94.30;;;;;;5106387;28;20088;-91
2024/01/03 01:14:02;;;;;;;3.22;2.17;;;10.50;94.90;;;;;;5099897;28;20024;-92
2024/01/03 01:16:31;;;;;;;2.25;2.00;;;10.40;94.30;;;;;;5099910;28;20016;-91
2024/01/03 01:18:57;;;;;;;2.45;2.17;;;10.50;94.40;;;;;;5098073;28;20021;-92
2024/01/03 01:21:22;;;;;;;2.15;1.98;;;10.50;93.60;;;;;;5096554;28;20027;-92
2024/01/03 01:23:48;;;;;;;4.53;2.55;;;10.40;93.60;;;;;;5096666;28;20035;-92
2024/01/03 01:26:17;;;;;;;2.60;0.90;;;10.50;94.60;;;;;;5099098;28;20020;-91
2024/01/03 01:28:43;;;;;;;2.53;2.35;;;10.50;94.00;;;;;;5098366;28;20092;-91
2024/01/03 01:31:08;;;;;;;2.67;2.42;;;10.50;93.40;;;;;;5098520;28;20043;-91
2024/01/03 01:33:37;;;;;;;3.53;2.42;;;10.50;93.80;;;;;;5098157;28;20494;-92
2024/01/03 01:36:02;;;;;;;2.85;2.45;;;10.40;94.30;;;;;;5097988;28;20021;-92
2024/01/03 01:38:31;;;;;;;2.67;2.42;;;10.40;94.50;;;;;;5100755;28;20065;-94
2024/01/03 01:40:57;;;;;;;3.50;2.10;;;10.30;95.20;;;;;;5097210;28;20157;-91
2024/01/03 01:43:22;;;;;;;11.75;3.20;;;10.30;99.00;;;;;;5102282;28;20054;-92
2024/01/03 01:45:48;;;;;;;1.77;1.25;;;10.20;99.90;;;;;;5102104;28;20024;-92
2024/01/03 01:48:17;;;;;;;3.88;3.15;;;10.00;99.90;;;;;;5100694;28;20028;-90
2024/01/03 01:50:44;;;;;;;3.10;2.88;;;10.00;99.90;;;;;;5102181;28;20024;-92
2024/01/03 01:53:10;;;;;;;3.03;2.72;;;9.90;99.90;;;;;;5104239;28;20046;-92
2024/01/03 01:55:38;;;;;;;3.60;2.88;;;9.90;99.90;;;;;;5103424;28;20020;-92
2024/01/03 01:58:07;;;;;;;2.47;1.98;;;9.90;99.90;;;;;;5102957;28;20548;-92
2024/01/03 02:00:33;;;;;;;3.33;2.72;;;9.90;99.90;;;;;;5101383;28;20031;-92
2024/01/03 02:02:58;;;;;;;3.55;2.25;;;9.80;99.90;;;;;;5102844;28;20030;-92
2024/01/03 02:05:25;;;;;;;3.67;2.20;;;9.80;99.90;;;;;;5101139;28;20096;-92
2024/01/03 02:07:53;;;;;;;1.92;1.25;;;9.90;99.90;;;;;;5095127;28;20020;-92
2024/01/03 02:10:19;;;;;;;2.35;2.08;;;9.80;99.90;;;;;;5098012;28;20024;-91
2024/01/03 02:12:45;;;;;;;3.15;2.78;;;9.80;99.90;;;;;;5102155;28;20156;-93
2024/01/03 02:15:11;;;;;;;3.10;2.05;;;9.90;99.90;;;;;;5101464;28;20030;-90
2024/01/03 02:17:41;;;;;;;1.85;0.95;;;9.90;99.90;;;;;;5103085;28;20020;-92
2024/01/03 02:20:07;;;;;;;2.53;2.38;;;9.80;99.90;;;;;;5102284;28;20024;-91
2024/01/03 02:22:32;;;;;;;3.10;1.98;;;9.80;99.90;;;;;;5100576;28;20042;-91
2024/01/03 02:24:59;;;;;;;2.45;2.25;;;9.80;99.90;;;;;;5099780;28;20024;-91
2024/01/03 02:27:25;;;;;;;2.55;2.45;;;9.80;99.90;;;;;;5099266;28;20107;-93
2024/01/03 02:29:51;;;;;;;3.30;1.95;;;9.80;99.90;;;;;;5102449;28;20040;-92
2024/01/03 02:32:16;;;;;;;2.00;1.90;;;9.80;99.90;;;;;;5104279;28;20035;-93
2024/01/03 02:34:48;;;;;;;2.72;1.30;;;9.80;99.90;;;;;;5102189;28;20031;-92
2024/01/03 02:37:22;;;;;;;2.75;2.50;;;9.70;99.90;;;;;;5103875;28;20026;-92
2024/01/03 02:39:47;;;;;;;2.40;2.10;;;9.80;99.90;;;;;;5103198;28;20020;-91
2024/01/03 02:42:13;;;;;;;2.65;2.30;;;9.70;99.90;;;;;;5105165;28;20044;-92
2024/01/03 02:44:39;;;;;;;1.33;1.08;;;9.80;99.90;;;;;;5102602;28;20023;-91
2024/01/03 02:47:06;;;;;;;4.35;0.88;;;9.70;99.90;;;;;;5103103;28;20047;-92
2024/01/03 02:49:31;;;;;;;2.67;1.25;;;9.80;99.90;;;;;;5102544;28;20028;-92
2024/01/03 02:52:00;;;;;;;2.63;2.42;;;9.70;99.90;;;;;;5100925;28;20030;-92
2024/01/03 02:54:29;;;;;;;4.07;2.45;;;9.70;99.90;;;;;;5102812;28;20012;-93
2024/01/03 02:56:57;;;;;;;3.63;1.23;;;9.70;99.90;;;;;;5102255;28;20024;-92
2024/01/03 02:59:24;;;;;;;3.60;3.08;;;9.70;99.90;;;;;;5100332;28;20023;-91
2024/01/03 03:01:50;;;;;;;1.92;1.20;;;9.80;99.90;;;;;;5100108;28;20042;-92
2024/01/03 03:04:19;;;;;;;3.70;3.40;;;9.80;99.90;;;;;;5101064;28;20016;-92
2024/01/03 03:06:48;;;;;;;2.28;2.10;;;9.80;99.90;;;;;;5106629;28;20207;-89
2024/01/03 03:09:13;;;;;;;1.52;0.80;;;9.80;99.90;;;;;;5125939;28;20032;-91
2024/01/03 03:11:39;;;;;;;2.35;2.13;;;9.80;99.90;;;;;;5112293;28;20032;-90
2024/01/03 03:14:09;;;;;;;3.92;3.58;;;9.80;99.90;;;;;;5110670;28;20057;-92
2024/01/03 03:16:36;;;;;;;2.35;2.25;;;9.80;99.90;;;;;;5100205;28;20016;-93
2024/01/03 03:19:08;;;;;;;3.53;3.22;;;9.70;99.90;;;;;;5103169;28;20035;-92
2024/01/03 03:21:34;;;;;;;2.88;2.67;;;9.70;99.90;;;;;;5099669;28;20100;-92
2024/01/03 03:24:01;;;;;;;4.05;2.72;;;9.70;99.90;;;;;;5102329;28;20080;-93
2024/01/03 03:26:26;;;;;;;3.10;2.80;;;9.70;99.90;;;;;;5098469;28;20023;-92
2024/01/03 03:28:52;;;;;;;3.00;2.80;;;9.80;99.90;;;;;;5098372;28;20024;-92
2024/01/03 03:31:18;;;;;;;2.90;2.70;;;9.80;99.90;;;;;;5101158;28;20020;-92
2024/01/03 03:33:43;;;;;;;3.20;2.90;;;9.80;99.90;;;;;;5101570;28;20039;-91
2024/01/03 03:36:15;;;;;;;2.45;1.95;;;9.80;99.90;;;;;;5100039;28;20192;-93
2024/01/03 03:38:41;;;;;;;2.60;2.28;;;9.80;99.90;;;;;;5100700;28;20048;-93
2024/01/03 03:41:13;;;;;;;4.10;2.63;;;9.70;99.90;;;;;;5099538;28;20042;-92
2024/01/03 03:43:40;;;;;;;2.33;1.02;;;9.70;99.90;;;;;;5096349;28;20031;-92
2024/01/03 03:46:10;;;;;;;4.05;2.05;;;9.70;99.90;;;;;;5100438;28;20024;-93
2024/01/03 03:48:36;;;;;;;2.85;2.63;;;9.70;99.90;;;;;;5098069;28;20020;-92
2024/01/03 03:51:03;;;;;;;4.40;1.75;;;9.70;99.90;;;;;;5097439;28;20108;-93
2024/01/03 03:53:29;;;;;;;4.10;2.42;;;9.80;99.90;;;;;;5099222;28;20031;-92
2024/01/03 03:55:58;;;;;;;3.25;2.38;;;9.80;99.90;;;;;;5097828;28;20024;-92
2024/01/03 03:58:23;;;;;;;2.78;2.63;;;9.70;99.90;;;;;;5098547;28;20020;-92
2024/01/03 04:00:49;;;;;;;2.90;2.65;;;9.80;99.90;;;;;;5100582;28;20031;-92
2024/01/03 04:03:15;;;;;;;2.25;2.05;;;9.80;99.90;;;;;;5098699;28;20563;-92
2024/01/03 04:05:41;;;;;;;2.67;2.47;;;9.80;99.90;;;;;;5100151;28;20024;-94
2024/01/03 04:08:06;;;;;;;3.17;0.88;;;9.80;99.90;;;;;;5098813;28;20090;-91
2024/01/03 04:10:32;;;;;;;1.95;1.65;;;9.80;99.90;;;;;;5099299;28;20074;-91
2024/01/03 04:13:01;;;;;;;3.00;1.10;;;9.80;99.90;;;;;;5099296;28;20339;-92
2024/01/03 04:15:30;;;;;;;4.65;2.88;;;9.70;99.90;;;;;;5099280;28;20024;-91
2024/01/03 04:17:55;;;;;;;4.05;1.48;;;9.80;99.90;;;;;;5098242;28;20023;-92
2024/01/03 04:20:21;;;;;;;4.03;2.70;;;9.70;99.90;;;;;;5097290;28;20024;-93
2024/01/03 04:22:49;;;;;;;4.03;2.25;;;9.70;99.50;;;;;;5100418;28;20085;-92
2024/01/03 04:25:15;;;;;;;2.15;1.25;;;9.80;99.90;;;;;;5100253;28;20081;-94
2024/01/03 04:27:40;;;;;;;2.95;2.72;;;9.70;99.90;;;;;;5099710;28;20028;-91
2024/01/03 04:30:06;;;;;;;3.33;3.08;;;9.70;99.90;;;;;;5098370;28;20035;-92
2024/01/03 04:32:32;;;;;;;2.35;2.20;;;9.70;98.80;;;;;;5099326;28;20016;-92
2024/01/03 04:34:58;;;;;;;5.65;2.78;;;9.80;97.70;;;;;;5100263;28;20024;-92
2024/01/03 04:37:24;;;;;;;2.92;0.90;;;9.80;97.50;;;;;;5101861;28;20036;-93
2024/01/03 04:39:50;;;;;;;3.25;2.78;;;9.90;97.00;;;;;;5094643;28;20023;-92
2024/01/03 04:42:16;;;;;;;4.22;1.25;;;9.90;96.30;;;;;;5098428;28;20069;-92
2024/01/03 04:44:42;;;;;;;5.90;3.25;;;9.90;95.50;;;;;;5100155;28;20474;-93
2024/01/03 04:47:09;;;;;;;5.85;2.88;;;9.90;93.40;;;;;;5097789;28;20055;-92
2024/01/03 04:49:35;;;;;;;2.47;2.08;;;10.00;92.60;;;;;;5101758;28;20046;-92
2024/01/03 04:52:03;;;;;;;3.97;2.08;;;10.20;91.30;;;;;;5100977;28;20474;-93
2024/01/03 04:54:29;;;;;;;5.47;1.83;;;10.20;91.00;;;;;;5099900;28;20031;-92
2024/01/03 04:56:55;;;;;;;6.63;3.05;;;10.20;91.20;;;;;;5101124;28;20023;-93
2024/01/03 04:59:21;;;;;;;3.75;2.22;;;10.20;90.80;;;;;;5098657;28;20021;-92
2024/01/03 05:01:47;;;;;;;4.75;2.97;;;10.10;92.00;;;;;;5101423;28;20040;-93
2024/01/03 05:04:15;;;;;;;5.72;1.88;;;10.10;91.60;;;;;;5099302;28;20468;-92
2024/01/03 05:06:41;;;;;;;5.07;1.20;;;10.10;90.60;;;;;;5097674;28;20422;-91
2024/01/03 05:09:07;;;;;;;4.00;3.38;;;10.30;89.70;;;;;;5111335;28;20035;-91
2024/01/03 05:11:32;;;;;;;6.88;2.78;;;10.20;89.70;;;;;;5115852;28;20009;-91
2024/01/03 05:13:58;;;;;;;6.18;3.58;;;10.20;90.20;;;;;;5115823;28;20046;-91
2024/01/03 05:16:24;;;;;;;5.50;2.63;;;10.20;89.90;;;;;;5118940;28;20039;-91
2024/01/03 05:18:50;;;;;;;4.55;2.80;;;10.20;89.10;;;;;;5119623;28;20012;-93
2024/01/03 05:21:16;;;;;;;4.63;2.17;;;10.20;90.60;;;;;;5110636;28;20016;-93
2024/01/03 05:23:41;;;;;;;5.35;2.83;;;10.20;90.80;;;;;;5105506;28;20034;-92
2024/01/03 05:26:07;;;;;;;5.97;2.88;;;10.10;91.70;;;;;;5105042;28;20027;-92
2024/01/03 05:28:33;;;;;;;6.88;2.60;;;10.10;92.60;;;;;;5105889;28;20049;-92
2024/01/03 05:30:58;;;;;;;4.50;2.38;;;10.10;92.00;;;;;;5104231;28;20024;-92
2024/01/03 05:33:25;;;;;;;3.97;2.60;;;10.00;92.60;;;;;;5105961;28;20031;-92
2024/01/03 05:35:51;;;;;;;4.38;1.98;;;10.00;91.90;;;;;;5106680;28;20017;-93
2024/01/03 05:38:17;;;;;;;6.28;3.20;;;10.10;89.30;;;;;;5105747;28;20080;-92
2024/01/03 05:40:43;;;;;;;4.00;2.40;;;10.20;87.50;;;;;;5108577;28;20024;-91
2024/01/03 05:43:11;;;;;;;4.97;3.25;;;10.30;87.70;;;;;;5107186;28;20024;-92
2024/01/03 05:45:36;;;;;;;;;;;10.40;85.70;;;;;;5105610;28;20097;-93
2024/01/03 05:48:02;;;;;;;5.10;3.10;;;10.40;87.00;;;;;;5100023;28;19903;-91
2024/01/03 05:50:28;;;;;;;9.32;3.58;;;10.50;85.60;;;;;;5104067;28;20072;-93
2024/01/03 05:52:53;;;;;;;4.72;2.88;;;10.50;86.20;;;;;;5106002;28;20074;-92
2024/01/03 05:55:19;;;;;;;5.00;2.95;;;10.60;85.60;;;;;;5105054;28;20066;-92
2024/01/03 05:57:45;;;;;;;4.22;1.63;;;10.60;85.10;;;;;;5104880;28;20031;-94
2024/01/03 06:00:11;;;;;;;4.78;4.38;;;10.60;86.00;;;;;;5103351;28;20032;-91
2024/01/03 06:02:37;;;;;;;3.85;2.50;;;10.50;86.80;;;;;;5105944;28;20039;-92
2024/01/03 06:05:04;;;;;;;5.90;2.88;;;10.50;86.60;;;;;;5102485;28;20150;-93
2024/01/03 06:07:29;;;;;;;2.42;1.92;;;10.50;87.20;;;;;;5105396;28;20031;-93
2024/01/03 06:09:55;;;;;;;3.40;2.80;;;10.50;87.30;;;;;;5105852;28;20020;-90
2024/01/03 06:12:21;;;;;;;3.83;1.40;;;10.50;87.70;;;;;;5096857;28;20035;-93
2024/01/03 06:14:47;;;;;;;5.50;2.25;;;10.50;89.40;;;;;;5103439;28;20020;-92
2024/01/03 06:17:12;;;;;;;2.60;2.20;;;10.40;91.30;;;;;;5104275;28;20020;-92
2024/01/03 06:19:41;;;;;;;6.43;2.45;;;10.30;92.10;;;;;;5104558;28;20036;-92
2024/01/03 06:22:07;;;;;;;4.20;2.90;;;10.30;91.60;;;;;;5100175;28;20028;-92
2024/01/03 06:24:33;;;;;;;4.63;2.53;;;10.30;92.90;;;;;;5107258;28;20028;-93
2024/01/03 06:26:59;;;;;;;4.25;2.88;;;10.30;92.80;;;;;;5105656;28;20026;-91
2024/01/03 06:29:25;;;;;;;3.78;2.97;;;10.30;91.30;;;;;;5100824;28;20028;-91
2024/01/03 06:31:51;;;;;;;3.00;2.70;;;10.40;90.80;;;;;;5098934;28;20020;-92
2024/01/03 06:34:17;;;;;;;5.65;4.40;;;10.50;90.50;;;;;;5098858;28;20077;-92
2024/01/03 06:36:42;;;;;;;5.25;3.58;;;10.50;90.30;;;;;;5101453;28;20046;-93
2024/01/03 06:39:08;;;;;;;5.38;2.97;;;10.60;89.30;;;;;;5100768;28;20031;-92
2024/01/03 06:41:34;;;;;;;7.03;2.42;;;10.60;89.60;;;;;;5100293;28;20016;-92
2024/01/03 06:43:59;;;;;;;5.00;3.17;;;10.60;90.00;;;;;;5104102;28;20139;-93
2024/01/03 06:46:28;;;;;;;4.25;2.28;;;10.60;89.20;;;;;;5099598;28;20055;-93
2024/01/03 06:48:57;;;;;;;7.32;2.92;;;10.60;90.00;;;;;;5100272;28;20035;-92
2024/01/03 06:51:23;;;;;;;4.18;2.08;;;10.50;90.20;;;;;;5099363;28;20023;-93
2024/01/03 06:53:49;;;;;;;6.43;3.38;;;10.50;91.10;;;;;;5100004;28;20024;-92
2024/01/03 06:56:20;;;;;;;9.95;2.25;;;10.50;91.40;;;;;;5103107;28;20482;-92
2024/01/03 06:58:46;;;;;;;2.85;2.63;;;10.50;91.10;;;;;;5097803;28;20035;-91
2024/01/03 07:01:11;;;;;;;6.30;3.15;;;10.50;93.00;;;;;;5096992;28;20032;-92
2024/01/03 07:03:37;;;;;;;5.63;2.55;;;10.40;93.10;;;;;;5100214;28;20022;-92
2024/01/03 07:06:03;;;;;;;4.03;2.47;;;10.30;93.80;;;;;;5103114;28;20111;-91
2024/01/03 07:08:29;;;;;;;4.07;2.90;;;10.30;94.80;;;;;;5102354;28;20004;-90
2024/01/03 07:10:55;;;;;;;5.55;2.63;;;10.30;95.20;;;;;;5117055;28;20016;-92
2024/01/03 07:13:21;;;;;;;6.47;3.13;;;10.20;95.40;;;;;;5145944;22;20079;-93
2024/01/03 07:15:46;;;;;;;7.63;3.60;;;10.20;96.30;;;;;;5104637;28;20031;-93
2024/01/03 07:18:12;;;;;;;4.78;2.22;;;10.20;97.10;;;;;;5111899;28;20035;-92
2024/01/03 07:20:38;;;;;;;4.13;1.15;;;10.10;96.80;;;;;;5081957;28;20383;-93
2024/01/03 07:23:04;;;;;;;6.00;1.85;;;10.10;96.70;;;;;;5096037;28;20040;-92
2024/01/03 07:25:29;;;;;;;3.42;2.92;;;10.20;97.00;;;;;;5079797;28;20055;-92
2024/01/03 07:27:55;;;;;;;2.67;2.58;;;10.10;97.20;;;;;;5093873;28;20055;-92
2024/01/03 07:30:25;;;;;;;3.05;1.35;;;10.20;96.10;;;;;;5079965;28;20031;-93
2024/01/03 07:32:56;;;;;;;2.85;1.92;;;10.20;95.30;;;;;;5099618;28;20031;-92
2024/01/03 07:35:25;;;;;;;6.03;1.90;;;10.20;95.00;;;;;;5097849;28;20024;-92
2024/01/03 07:37:51;;;;;;;4.80;2.85;;;10.30;95.40;;;;;;5098743;28;20020;-92
2024/01/03 07:40:17;;;;;;;4.32;2.85;;;10.30;95.00;;;;;;5083392;28;20026;-92
2024/01/03 07:42:43;;;;;;;2.95;2.65;;;10.30;94.40;;;;;;5102516;28;20036;-92
2024/01/03 07:45:09;;;;;;;2.97;2.67;;;10.40;93.90;;;;;;5108151;28;20008;-93
2024/01/03 07:47:34;;;;;;;4.22;3.85;;;10.50;92.80;;;;;;5109989;22;20052;-92
2024/01/03 07:50:00;;;;;;;2.95;2.75;;;10.50;92.90;;;;;;5088760;28;20084;-92
2024/01/03 07:52:27;;;;;;;6.57;2.88;;;10.50;93.00;;;;;;5085835;28;20054;-93
2024/01/03 07:54:53;;;;;;;4.00;2.42;;;10.50;93.00;;;;;;5076193;28;20016;-93
2024/01/03 07:57:19;;;;;;;2.47;2.28;;;10.50;92.60;;;;;;5086682;28;20008;-92
2024/01/03 07:59:45;;;;;;;2.88;2.67;;;10.50;93.00;;;;;;5074614;28;20024;-93
2024/01/03 08:02:14;;;;;;;5.20;2.85;;;10.60;92.60;;;;;;5065679;28;20070;-95
2024/01/03 08:04:40;;;;;;;2.90;1.73;;;10.60;93.20;;;;;;5084903;28;20024;-93
2024/01/03 08:07:06;;;;;;;2.70;1.00;;;10.60;92.60;;;;;;5066741;28;20029;-92
2024/01/03 08:09:34;;;;;;;4.05;2.40;;;10.70;92.90;;;;;;5067034;28;20051;-91
2024/01/03 08:12:00;;;;;;;2.78;2.45;;;10.60;94.20;;;;;;5086276;28;20029;-94
2024/01/03 08:14:25;;;;;;;3.47;3.28;;;10.60;95.50;;;;;;5084682;28;20501;-90
2024/01/03 08:16:51;;;;;;;4.93;2.45;;;10.50;95.30;;;;;;5085921;28;20059;-92
2024/01/03 08:19:18;;;;;;;3.67;1.90;;;10.50;95.20;;;;;;5088404;28;20020;-92
2024/01/03 08:21:44;;;;;;;4.72;2.47;;;10.60;95.30;;;;;;5068801;28;20107;-93
2024/01/03 08:24:09;;;;;;;2.53;2.33;;;10.60;94.30;;;;;;5067207;28;20024;-93
2024/01/03 08:26:35;;;;;;;2.53;2.33;;;10.60;94.60;;;;;;5065320;28;20088;-93
2024/01/03 08:29:01;;;;;;;4.22;3.58;;;10.60;95.30;;;;;;5084016;28;20339;-92
2024/01/03 08:31:26;;;;;;;4.95;1.83;;;10.60;94.20;;;;;;5084610;28;20033;-95
2024/01/03 08:33:52;;;;;;;5.00;1.48;;;10.70;92.50;;;;;;5085842;28;20359;-91
2024/01/03 08:36:18;;;;;;;7.20;2.58;;;10.70;94.10;;;;;;5067341;28;20024;-92
2024/01/03 08:38:44;;;;;;;4.88;2.45;;;10.70;93.20;;;;;;5084742;28;20021;-92
2024/01/03 08:41:16;;;;;;;3.30;2.72;;;10.80;93.40;;;;;;5085399;28;20040;-92
2024/01/03 08:43:42;;;;;;;3.40;2.38;;;10.70;94.30;;;;;;5085258;28;20096;-93
2024/01/03 08:46:08;;;;;;;4.50;3.42;;;10.70;92.60;;;;;;5084590;28;20039;-92
2024/01/03 08:48:34;;;;;;;4.93;2.70;;;10.80;92.10;;;;;;5048531;28;20064;-92
2024/01/03 08:51:00;;;;;;;4.18;2.55;;;10.80;91.70;;;;;;5064536;28;20482;-92
2024/01/03 08:53:26;;;;;;;3.50;2.47;;;10.90;92.90;;;;;;5083336;28;20112;-91
2024/01/03 08:55:51;;;;;;;3.80;2.60;;;10.80;92.70;;;;;;5073298;28;20078;-91
2024/01/03 08:58:17;;;;;;;4.60;2.20;;;10.80;93.00;;;;;;5074169;28;20029;-93
2024/01/03 09:00:44;;;;;;;6.05;3.05;;;10.80;93.60;;;;;;5079789;28;20107;-95
2024/01/03 09:03:12;;;;;;;2.55;2.42;;;10.70;96.30;;;;;;5097680;28;20028;-93
2024/01/03 09:05:38;;;;;;;4.97;2.45;;;10.60;96.40;;;;;;5097743;28;20036;-92
2024/01/03 09:08:04;;;;;;;2.60;2.40;;;10.60;95.50;;;;;;5079331;28;20032;-91
2024/01/03 09:10:30;;;;;;;2.85;2.03;;;10.70;95.00;;;;;;5091751;28;20020;-91
2024/01/03 09:12:57;;;;;;;3.47;2.90;;;10.60;95.80;;;;;;5083855;28;20052;-92
2024/01/03 09:15:23;;;;;;;4.50;2.28;;;10.70;94.20;;;;;;5066621;28;20054;-92
2024/01/03 09:17:49;;;;;;;2.83;2.63;;;10.70;93.10;;;;;;5064669;28;20029;-91
2024/01/03 09:20:16;;;;;;;2.50;1.42;;;10.80;92.10;;;;;;5064125;28;20456;-90
2024/01/03 09:22:42;;;;;;;5.22;2.55;;;10.80;92.80;;;;;;5063086;28;20052;-92
2024/01/03 09:25:08;;;;;;;5.00;3.03;;;10.70;93.50;;;;;;5047699;28;20127;-92
2024/01/03 09:27:34;;;;;;;4.47;2.08;;;10.80;92.50;;;;;;5047799;28;20017;-92
2024/01/03 09:30:00;;;;;;;3.72;2.90;;;10.80;93.20;;;;;;5063837;28;20123;-91
2024/01/03 09:32:26;;;;;;;2.67;2.22;;;10.80;94.30;;;;;;5081228;28;20052;-92
2024/01/03 09:34:52;;;;;;;7.13;2.15;;;10.70;93.80;;;;;;5063080;28;20055;-92
2024/01/03 09:37:19;;;;;;;3.28;1.60;;;10.80;92.70;;;;;;5063478;28;20021;-91
2024/01/03 09:39:45;;;;;;;2.90;2.42;;;10.80;93.30;;;;;;5063293;28;20028;-91
2024/01/03 09:42:12;;;;;;;2.63;2.42;;;10.80;92.20;;;;;;5081099;28;20140;-91
2024/01/03 09:44:38;;;;;;;2.03;1.83;;;10.90;93.00;;;;;;5080172;28;20520;-92
2024/01/03 09:47:04;;;;;;;4.03;1.92;;;10.90;95.10;;;;;;5061957;28;20055;-91
2024/01/03 09:49:30;;;;;;;3.50;2.22;;;10.80;95.90;;;;;;5080494;28;20020;-91
2024/01/03 09:51:57;;;;;;;2.25;1.27;;;10.70;96.20;;;;;;5062693;28;20082;-90
2024/01/03 09:54:22;;;;;;;2.58;1.67;;;10.70;97.80;;;;;;5062309;28;20029;-91
2024/01/03 09:56:51;;;;;;;4.20;2.38;;;10.60;99.20;;;;;;5081219;28;20070;-91
2024/01/03 09:59:17;;;;;;;3.88;2.15;;;10.50;99.90;;;;;;5081157;28;20021;-91
2024/01/03 10:01:58;;;;;;;4.22;1.92;;;10.40;99.90;;;;;;5064322;28;20021;-93
2024/01/03 10:04:26;;;;;;;5.95;2.38;;;10.30;99.90;;;;;;5088366;28;20031;-91
2024/01/03 10:06:54;;;;;;;2.63;2.53;;;10.20;99.90;;;;;;5090152;28;20020;-91
2024/01/03 10:09:22;;;;;;;3.58;2.22;;;10.20;99.90;;;;;;5090484;28;20032;-91
2024/01/03 10:11:54;;;;;;;;;;;10.00;99.90;;;;;;5089386;28;20050;-92
2024/01/03 10:14:22;;;;;;;5.82;2.50;;;10.00;99.90;;;;;;5068367;28;19915;-92
2024/01/03 10:16:48;;;;;;;1.85;1.00;;;10.00;99.90;;;;;;5088315;28;20032;-93
2024/01/03 10:19:16;;;;;;;4.88;2.45;;;10.00;99.90;;;;;;5088018;28;20028;-91
2024/01/03 10:21:53;;;;;;;3.00;2.80;;;9.90;99.90;;;;;;5066588;28;20036;-92
2024/01/03 10:24:26;;;;;;;3.00;2.50;;;9.90;99.90;;;;;;5077351;28;20474;-92
2024/01/03 10:26:51;;;;;;;3.50;3.10;;;9.80;99.90;;;;;;5087880;28;20084;-91
2024/01/03 10:29:19;;;;;;;3.22;2.10;;;9.70;99.90;;;;;;5071742;28;20048;-91
2024/01/03 10:31:46;;;;;;;2.50;1.52;;;9.70;99.90;;;;;;5053265;28;20118;-92
2024/01/03 10:34:17;;;;;;;2.67;2.47;;;9.60;99.90;;;;;;5086260;28;20032;-91
2024/01/03 10:36:46;;;;;;;3.95;2.17;;;9.70;99.90;;;;;;5068486;28;20027;-91
2024/01/03 10:39:17;;;;;;;2.83;2.17;;;9.80;99.90;;;;;;5085348;28;20028;-93
2024/01/03 10:41:46;;;;;;;4.25;2.50;;;10.00;99.90;;;;;;5068214;28;20008;-91
2024/01/03 10:44:14;;;;;;;3.95;3.53;;;10.10;99.90;;;;;;5067121;28;20207;-91
2024/01/03 10:46:43;;;;;;;2.45;2.25;;;10.10;99.90;;;;;;5084837;28;20040;-90
2024/01/03 10:49:09;;;;;;;2.92;2.58;;;10.10;99.90;;;;;;5084402;28;20025;-90
2024/01/03 10:51:43;;;;;;;4.80;2.85;;;10.20;99.90;;;;;;5066725;28;20497;-92
2024/01/03 10:54:15;;;;;;;2.50;1.75;;;10.30;99.90;;;;;;5085467;28;20025;-91
2024/01/03 10:56:51;;;;;;;3.10;1.30;;;10.30;99.90;;;;;;5084640;28;20046;-89
2024/01/03 10:59:18;;;;;;;3.22;2.00;;;10.50;99.90;;;;;;5090525;28;20021;-92
2024/01/03 11:01:53;;;;;;;3.28;2.17;;;10.70;99.90;;;;;;5077765;28;20021;-91
2024/01/03 11:04:32;;;;;;;3.13;2.47;;;10.80;99.90;;;;;;5077687;28;20082;-91
2024/01/03 11:07:17;;;;;;;2.40;2.30;;;10.80;99.90;;;;;;5073971;28;20032;-90
2024/01/03 11:09:44;;;;;;;3.13;1.52;;;11.10;99.90;;;;;;5069381;28;20026;-91
2024/01/03 11:12:13;;;;;;;5.60;1.92;;;11.50;99.20;;;;;;5074255;28;20063;-91
2024/01/03 11:14:39;;;;;;;2.92;1.73;;;11.70;96.40;;;;;;5085692;28;20021;-90
2024/01/03 11:17:31;;;;;;;6.90;1.52;;;11.90;94.90;;;;;;5070687;28;20017;-90
2024/01/03 11:20:07;;;;;;;1.65;0.52;;;11.80;94.50;;;;;;5063881;28;20499;-91
2024/01/03 11:23:02;;;;;;;2.58;2.38;;;11.50;94.20;;;;;;5074610;28;20029;-91
2024/01/03 11:25:47;;;;;;;6.60;3.42;;;11.50;95.10;;;;;;5059947;28;20043;-92
2024/01/03 11:28:33;;;;;;;3.88;2.22;;;11.40;94.10;;;;;;5093183;28;20024;-90
2024/01/03 11:31:00;;;;;;;4.18;3.65;;;11.30;95.50;;;;;;5082227;28;20074;-91
2024/01/03 11:33:28;;;;;;;6.22;2.60;;;11.30;94.70;;;;;;5090064;28;20035;-92
2024/01/03 11:35:57;;;;;;;2.83;1.10;;;11.30;94.50;;;;;;5082663;28;20032;-91
2024/01/03 11:38:40;;;;;;;3.97;3.33;;;11.20;93.80;;;;;;5091635;28;20024;-92
2024/01/03 11:41:14;;;;;;;4.40;3.03;;;11.30;94.30;;;;;;5081692;28;20023;-91
2024/01/03 11:43:40;;;;;;;3.67;2.50;;;11.30;93.80;;;;;;5068673;28;20028;-93
2024/01/03 11:46:15;;;;;;;3.88;2.20;;;11.30;92.20;;;;;;5072960;28;20024;-92
2024/01/03 11:48:45;;;;;;;3.13;2.30;;;11.50;89.90;;;;;;5083319;28;20062;-93
2024/01/03 11:51:24;;;;;;;3.58;2.85;;;11.60;87.40;;;;;;5091715;28;20005;-92
2024/01/03 11:53:53;;;;;;;4.40;3.10;;;11.70;88.00;;;;;;5079910;28;20029;-90
2024/01/03 11:56:34;;;;;;;3.35;2.33;;;11.60;88.50;;;;;;5089959;28;20027;-92
2024/01/03 11:59:02;;;;;;;3.67;2.15;;;11.60;88.40;;;;;;5054111;28;20021;-91
2024/01/03 12:01:32;;;;;;;3.75;1.98;;;11.50;88.30;;;;;;5076218;28;20017;-91
2024/01/03 12:04:11;;;;;;;5.85;2.17;;;11.50;90.50;;;;;;5087394;28;20024;-91
2024/01/03 12:06:37;;;;;;;2.20;2.05;;;11.20;96.60;;;;;;5086276;28;20024;-91
2024/01/03 12:09:04;;;;;;;3.58;1.30;;;10.90;99.90;;;;;;5093207;28;20028;-92
2024/01/03 12:11:31;;;;;;;2.88;2.65;;;10.70;99.90;;;;;;5087859;28;20028;-90
2024/01/03 12:13:58;;;;;;;1.55;0.88;;;10.60;99.90;;;;;;5090328;28;20012;-91
2024/01/03 12:16:23;;;;;;;2.58;0.75;;;10.40;99.90;;;;;;5072648;28;20510;-92
2024/01/03 12:18:54;;;;;;;4.03;1.38;;;10.40;99.90;;;;;;5094464;28;20013;-91
2024/01/03 12:21:28;;;;;;;3.35;0.88;;;10.50;99.90;;;;;;5086554;28;20025;-89
2024/01/03 12:24:14;;;;;;;4.18;1.52;;;10.50;99.90;;;;;;5071541;28;20040;-91
2024/01/03 12:26:40;;;;;;;1.70;1.05;;;10.60;99.90;;;;;;5067060;28;20029;-92
2024/01/03 12:29:06;;;;;;;2.80;2.42;;;10.60;99.90;;;;;;5046467;28;20100;-92
2024/01/03 12:31:32;;;;;;;3.30;2.83;;;10.60;99.90;;;;;;5074945;28;20541;-91
2024/01/03 12:34:08;;;;;;;1.63;0.95;;;10.80;99.90;;;;;;5087478;28;20028;-91
2024/01/03 12:36:34;;;;;;;6.13;3.10;;;11.00;98.70;;;;;;5091160;28;20132;-90
2024/01/03 12:39:01;;;;;;;3.20;2.38;;;11.30;95.30;;;;;;5068239;28;20008;-94
2024/01/03 12:41:27;;;;;;;2.15;2.05;;;11.30;93.60;;;;;;5082131;28;20030;-91
2024/01/03 12:43:53;;;;;;;2.30;1.40;;;11.40;94.10;;;;;;5082220;28;20017;-91
2024/01/03 12:46:19;;;;;;;1.85;1.75;;;11.30;92.60;;;;;;5064791;28;20094;-91
2024/01/03 12:48:45;;;;;;;2.40;2.25;;;11.40;91.00;;;;;;5083312;28;20033;-93
2024/01/03 12:51:11;;;;;;;2.83;2.30;;;11.40;92.70;;;;;;5083589;28;20039;-91
2024/01/03 12:53:37;;;;;;;2.08;1.60;;;11.50;91.70;;;;;;5084152;28;20041;-91